createdAt,value
2023-05-21T00:01:49.995Z,23.33
2023-05-21T00:04:35.203Z,25.88
2023-05-21T00:07:20.961Z,25.52
2023-05-21T00:10:06.978Z,22.73
2023-05-21T00:12:52.416Z,21.58
2023-05-21T00:15:38.734Z,27.17
2023-05-21T00:18:25.917Z,25.95
2023-05-21T00:21:12.188Z,22.88
2023-05-21T00:23:57.480Z,21.25
2023-05-21T00:26:42.751Z,31.08
2023-05-21T00:29:30.053Z,28.85
2023-05-21T00:32:15.347Z,23.40
2023-05-21T00:35:00.796Z,27.33
2023-05-21T00:37:47.593Z,30.63
2023-05-21T00:40:34.355Z,26.65
2023-05-21T00:43:19.833Z,25.45
2023-05-21T00:46:05.485Z,25.83
2023-05-21T00:48:51.220Z,24.83
2023-05-21T00:51:36.693Z,24.98
2023-05-21T00:54:22.473Z,25.40
2023-05-21T00:57:07.926Z,24.27
2023-05-21T00:59:53.515Z,25.48
2023-05-21T01:02:39.209Z,24.17
2023-05-21T01:05:24.588Z,23.45
2023-05-21T01:08:10.206Z,22.20
2023-05-21T01:10:57.020Z,22.40
2023-05-21T01:13:43.345Z,23.58
2023-05-21T01:16:29.154Z,23.13
2023-05-21T01:19:17.175Z,26.63
2023-05-21T01:22:07.777Z,27.40
2023-05-21T01:24:55.378Z,25.42
2023-05-21T01:27:40.596Z,27.27
2023-05-21T01:30:26.287Z,26.35
2023-05-21T01:33:36.531Z,27.38
2023-05-21T01:36:26.196Z,27.60
2023-05-21T01:39:22.986Z,25.35
2023-05-21T01:42:10.560Z,26.38
2023-05-21T01:44:57.256Z,26.00
2023-05-21T01:47:47.692Z,32.10
2023-05-21T01:50:34.330Z,28.30
2023-05-21T01:53:19.822Z,26.98
2023-05-21T01:56:05.694Z,29.00
2023-05-21T01:58:52.468Z,27.35
2023-05-21T02:01:37.950Z,27.02
2023-05-21T02:04:23.452Z,25.75
2023-05-21T02:07:10.161Z,25.73
2023-05-21T02:09:55.287Z,27.25
2023-05-21T02:12:40.815Z,29.25
2023-05-21T02:15:27.276Z,28.13
2023-05-21T02:18:16.801Z,27.15
2023-05-21T02:21:03.448Z,27.20
2023-05-21T02:23:49.182Z,29.75
2023-05-21T02:26:34.859Z,28.30
2023-05-21T02:29:20.102Z,32.97
2023-05-21T02:32:05.559Z,29.48
2023-05-21T02:34:51.071Z,32.72
2023-05-21T02:37:37.450Z,32.40
2023-05-21T02:40:24.250Z,34.78
2023-05-21T02:43:09.490Z,29.50
2023-05-21T02:45:55.022Z,31.60
2023-05-21T02:48:40.296Z,33.00
2023-05-21T02:51:25.795Z,33.03
2023-05-21T02:54:10.817Z,43.20
2023-05-21T02:56:56.577Z,37.42
2023-05-21T02:59:41.914Z,42.42
2023-05-21T03:02:27.434Z,28.27
2023-05-21T03:05:13.057Z,28.65
2023-05-21T03:07:58.473Z,30.40
2023-05-21T03:10:44.472Z,32.95
2023-05-21T03:13:29.683Z,30.35
2023-05-21T03:16:15.170Z,35.50
2023-05-21T03:19:01.212Z,34.83
2023-05-21T03:21:50.546Z,37.38
2023-05-21T03:24:36.614Z,32.13
2023-05-21T03:27:22.413Z,35.30
2023-05-21T03:30:09.389Z,33.22
2023-05-21T03:33:06.631Z,31.65
2023-05-21T03:35:52.539Z,33.90
2023-05-21T03:38:38.420Z,35.33
2023-05-21T03:41:23.960Z,31.33
2023-05-21T03:44:14.620Z,33.17
2023-05-21T03:47:11.650Z,36.92
2023-05-21T03:49:56.906Z,32.67
2023-05-21T03:52:42.426Z,32.50
2023-05-21T03:55:27.842Z,35.40
2023-05-21T03:58:13.180Z,36.95
2023-05-21T04:01:01.758Z,35.13
2023-05-21T04:03:48.058Z,34.92
2023-05-21T04:06:35.334Z,34.85
2023-05-21T04:09:21.338Z,37.03
2023-05-21T04:12:07.853Z,35.70
2023-05-21T04:14:55.909Z,33.30
2023-05-21T04:17:41.520Z,34.58
2023-05-21T04:20:27.230Z,35.08
2023-05-21T04:23:12.917Z,38.88
2023-05-21T04:25:59.217Z,34.05
2023-05-21T04:28:45.797Z,32.28
2023-05-21T04:31:32.497Z,38.92
2023-05-21T04:34:20.292Z,34.30
2023-05-21T04:37:06.804Z,38.55
2023-05-21T04:39:53.507Z,35.95
2023-05-21T04:42:39.096Z,30.60
2023-05-21T04:45:24.888Z,31.00
2023-05-21T04:48:12.612Z,33.90
2023-05-21T04:50:59.833Z,31.15
2023-05-21T04:53:46.152Z,32.55
2023-05-21T04:56:31.808Z,36.00
2023-05-21T04:59:18.561Z,37.17
2023-05-21T05:02:05.508Z,31.75
2023-05-21T05:04:50.676Z,37.92
2023-05-21T05:07:35.946Z,32.70
2023-05-21T05:10:21.682Z,28.63
2023-05-21T05:13:07.634Z,29.08
2023-05-21T05:15:54.767Z,31.02
2023-05-21T05:18:40.734Z,34.97
2023-05-21T05:21:26.573Z,40.70
2023-05-21T05:24:11.842Z,36.05
2023-05-21T05:26:57.082Z,34.60
2023-05-21T05:29:42.309Z,27.95
2023-05-21T05:32:27.756Z,34.58
2023-05-21T05:35:14.319Z,33.35
2023-05-21T05:38:00.392Z,30.20
2023-05-21T05:40:45.593Z,33.80
2023-05-21T05:43:30.826Z,32.33
2023-05-21T05:46:17.759Z,32.33
2023-05-21T05:49:04.081Z,32.67
2023-05-21T05:51:49.370Z,28.40
2023-05-21T05:54:35.376Z,31.08
2023-05-21T05:57:20.701Z,30.38
2023-05-21T06:00:11.457Z,29.08
2023-05-21T06:03:03.671Z,34.13
2023-05-21T06:05:50.178Z,27.58
2023-05-21T06:08:38.048Z,29.45
2023-05-21T06:11:23.756Z,27.23
2023-05-21T06:14:09.079Z,29.40
2023-05-21T06:16:54.847Z,25.50
2023-05-21T06:19:40.391Z,28.25
2023-05-21T06:22:26.035Z,28.65
2023-05-21T06:25:11.531Z,24.58
2023-05-21T06:27:57.464Z,25.80
2023-05-21T06:30:45.199Z,26.90
2023-05-21T06:33:30.616Z,26.77
2023-05-21T06:36:16.591Z,24.95
2023-05-21T06:39:03.302Z,26.75
2023-05-21T06:41:49.418Z,25.30
2023-05-21T06:44:53.176Z,27.00
2023-05-21T06:47:46.649Z,26.45
2023-05-21T06:50:32.232Z,27.55
2023-05-21T06:53:18.800Z,26.77
2023-05-21T06:56:04.142Z,22.63
2023-05-21T06:58:59.356Z,31.38
2023-05-21T07:01:45.029Z,23.38
2023-05-21T07:04:32.041Z,26.20
2023-05-21T07:07:17.529Z,22.40
2023-05-21T07:10:03.065Z,25.35
2023-05-21T07:12:48.388Z,29.60
2023-05-21T07:15:33.895Z,27.52
2023-05-21T07:18:20.026Z,27.98
2023-05-21T07:21:05.414Z,22.67
2023-05-21T07:23:50.568Z,21.80
2023-05-21T07:26:36.880Z,24.65
2023-05-21T07:29:22.550Z,19.92
2023-05-21T07:32:07.897Z,27.77
2023-05-21T07:34:54.684Z,19.27
2023-05-21T07:37:43.546Z,19.17
2023-05-21T07:40:28.626Z,23.80
2023-05-21T07:43:14.290Z,21.70
2023-05-21T07:46:00.057Z,22.85
2023-05-21T07:48:46.527Z,27.42
2023-05-21T07:51:32.160Z,18.98
2023-05-21T07:54:17.586Z,21.55
2023-05-21T07:57:03.914Z,18.00
2023-05-21T08:00:24.093Z,20.35
2023-05-21T08:03:17.476Z,19.70
2023-05-21T08:06:03.201Z,22.02
2023-05-21T08:08:48.526Z,18.67
2023-05-21T08:11:34.404Z,18.20
2023-05-21T08:14:20.741Z,19.77
2023-05-21T08:17:06.919Z,17.00
2023-05-21T08:19:51.971Z,19.40
2023-05-21T08:22:37.337Z,15.25
2023-05-21T08:25:23.138Z,14.68
2023-05-21T08:28:08.662Z,15.70
2023-05-21T08:30:54.082Z,13.55
2023-05-21T08:33:50.340Z,15.18
2023-05-21T08:36:36.589Z,16.08
2023-05-21T08:39:26.846Z,19.25
2023-05-21T08:42:37.429Z,17.90
2023-05-21T08:45:24.043Z,15.55
2023-05-21T08:48:14.100Z,15.60
2023-05-21T08:51:00.895Z,16.25
2023-05-21T08:53:51.122Z,19.38
2023-05-21T08:56:45.548Z,13.77
2023-05-21T08:59:30.990Z,13.23
2023-05-21T09:02:19.985Z,13.40
2023-05-21T09:05:06.368Z,13.85
2023-05-21T09:08:28.010Z,11.10
2023-05-21T09:11:23.234Z,10.88
2023-05-21T09:14:14.831Z,17.55
2023-05-21T09:17:16.981Z,12.85
2023-05-21T09:20:14.979Z,15.93
2023-05-21T09:23:17.974Z,15.38
2023-05-21T09:26:12.602Z,23.05
2023-05-21T09:29:00.298Z,14.60
2023-05-21T09:31:45.749Z,19.48
2023-05-21T09:34:36.113Z,12.13
2023-05-21T09:37:27.451Z,9.90
2023-05-21T09:40:15.870Z,13.48
2023-05-21T09:43:03.132Z,16.45
2023-05-21T09:45:53.135Z,14.93
2023-05-21T09:48:42.058Z,12.57
2023-05-21T09:51:39.203Z,13.57
2023-05-21T09:54:26.016Z,15.40
2023-05-21T09:57:14.292Z,15.13
2023-05-21T09:59:59.841Z,11.50
2023-05-21T10:02:47.681Z,10.85
2023-05-21T10:05:33.609Z,9.52
2023-05-21T10:08:22.592Z,10.90
2023-05-21T10:11:08.902Z,15.23
2023-05-21T10:14:09.050Z,14.00
2023-05-21T10:16:54.536Z,11.27
2023-05-21T10:19:41.343Z,14.32
2023-05-21T10:22:28.106Z,12.45
2023-05-21T10:25:13.516Z,10.48
2023-05-21T10:28:00.006Z,11.35
2023-05-21T10:30:46.429Z,16.35
2023-05-21T10:33:33.528Z,14.10
2023-05-21T10:36:20.304Z,9.82
2023-05-21T10:39:08.035Z,11.82
2023-05-21T10:42:06.003Z,11.85
2023-05-21T10:45:00.773Z,12.77
2023-05-21T10:48:27.822Z,12.30
2023-05-21T10:51:24.669Z,12.10
2023-05-21T10:54:41.000Z,12.85
2023-05-21T10:57:44.472Z,14.07
2023-05-21T11:00:31.507Z,10.73
2023-05-21T11:03:17.656Z,16.10
2023-05-21T11:06:06.251Z,12.93
2023-05-21T11:08:55.328Z,9.48
2023-05-21T11:14:43.550Z,11.48
2023-05-21T11:17:56.960Z,21.10
2023-05-21T11:20:50.282Z,8.10
2023-05-21T11:23:48.610Z,11.68
2023-05-21T11:26:52.656Z,9.27
2023-05-21T11:29:44.988Z,9.77
2023-05-21T11:32:31.601Z,10.95
2023-05-21T11:35:17.031Z,10.63
2023-05-21T11:38:02.672Z,14.05
2023-05-21T11:40:54.787Z,13.75
2023-05-21T11:43:40.663Z,8.75
2023-05-21T11:46:27.245Z,11.20
2023-05-21T11:49:12.986Z,10.70
2023-05-21T11:52:00.524Z,14.13
2023-05-21T11:54:51.245Z,11.02
2023-05-21T11:57:37.443Z,8.10
2023-05-21T12:00:23.471Z,12.02
2023-05-21T12:03:12.933Z,8.15
2023-05-21T12:06:05.657Z,8.85
2023-05-21T12:08:58.088Z,11.75
2023-05-21T12:11:43.630Z,14.63
2023-05-21T12:14:29.056Z,14.57
2023-05-21T12:17:19.162Z,10.10
2023-05-21T12:20:08.383Z,10.50
2023-05-21T12:22:54.182Z,9.13
2023-05-21T12:25:39.828Z,9.48
2023-05-21T12:28:25.435Z,12.35
2023-05-21T12:31:15.787Z,8.18
2023-05-21T12:34:02.221Z,13.32
2023-05-21T12:36:50.095Z,16.63
2023-05-21T12:39:40.149Z,7.40
2023-05-21T12:42:27.085Z,10.68
2023-05-21T12:45:13.194Z,7.25
2023-05-21T12:48:01.931Z,9.25
2023-05-21T12:50:47.122Z,10.10
2023-05-21T12:53:38.813Z,9.07
2023-05-21T12:56:25.350Z,11.02
2023-05-21T12:59:14.784Z,7.82
2023-05-21T13:02:00.476Z,8.50
2023-05-21T13:04:46.416Z,8.75
2023-05-21T13:07:33.748Z,10.82
2023-05-21T13:10:18.998Z,7.93
2023-05-21T13:13:05.087Z,12.05
2023-05-21T13:15:50.887Z,11.82
2023-05-21T13:18:36.021Z,11.90
2023-05-21T13:21:21.116Z,6.93
2023-05-21T13:24:07.372Z,12.40
2023-05-21T13:26:52.960Z,11.55
2023-05-21T13:29:38.236Z,11.32
2023-05-21T13:32:23.753Z,11.77
2023-05-21T13:35:11.908Z,12.80
2023-05-21T13:37:57.188Z,11.52
2023-05-21T13:40:42.862Z,9.23
2023-05-21T13:43:28.723Z,12.65
2023-05-21T13:46:14.253Z,11.43
2023-05-21T13:49:00.667Z,15.85
2023-05-21T13:51:46.074Z,13.55
2023-05-21T13:54:31.940Z,10.63
2023-05-21T13:57:17.616Z,13.82
2023-05-21T14:00:03.842Z,12.43
2023-05-21T14:02:53.347Z,9.05
2023-05-21T14:05:38.788Z,12.38
2023-05-21T14:08:24.767Z,13.75
2023-05-21T14:11:10.350Z,10.35
2023-05-21T14:13:55.618Z,10.27
2023-05-21T14:16:41.703Z,8.85
2023-05-21T14:19:26.975Z,10.70
2023-05-21T14:22:12.252Z,9.55
2023-05-21T14:24:57.732Z,8.55
2023-05-21T14:27:43.292Z,10.63
2023-05-21T14:30:28.536Z,13.57
2023-05-21T14:33:14.139Z,7.47
2023-05-21T14:36:00.794Z,10.80
2023-05-21T14:38:46.568Z,10.27
2023-05-21T14:41:31.905Z,10.90
2023-05-21T14:44:17.101Z,9.38
2023-05-21T14:47:02.432Z,8.77
2023-05-21T14:49:48.171Z,6.68
2023-05-21T14:52:34.631Z,8.85
2023-05-21T14:55:22.282Z,9.15
2023-05-21T14:58:07.590Z,12.63
2023-05-21T15:00:52.927Z,12.32
2023-05-21T15:03:38.228Z,16.13
2023-05-21T15:06:23.364Z,11.90
2023-05-21T15:09:09.005Z,12.90
2023-05-21T15:11:54.190Z,8.98
2023-05-21T15:14:40.061Z,13.45
2023-05-21T15:17:25.584Z,11.75
2023-05-21T15:20:11.331Z,8.45
2023-05-21T15:23:12.752Z,13.75
2023-05-21T15:26:02.517Z,10.38
2023-05-21T15:28:47.736Z,10.65
2023-05-21T15:31:33.092Z,8.13
2023-05-21T15:34:18.290Z,10.80
2023-05-21T15:37:03.493Z,10.32
2023-05-21T15:39:49.050Z,9.10
2023-05-21T15:42:34.670Z,10.25
2023-05-21T15:45:19.896Z,12.40
2023-05-21T15:48:05.450Z,7.30
2023-05-21T15:50:51.043Z,16.48
2023-05-21T15:53:36.157Z,9.10
2023-05-21T15:56:22.037Z,13.27
2023-05-21T15:59:07.516Z,7.30
2023-05-21T16:01:52.782Z,7.53
2023-05-21T16:04:38.044Z,8.50
2023-05-21T16:07:24.308Z,10.20
2023-05-21T16:10:09.757Z,16.92
2023-05-21T16:12:55.371Z,8.77
2023-05-21T16:15:40.639Z,10.15
2023-05-21T16:18:26.093Z,9.80
2023-05-21T16:21:11.306Z,7.95
2023-05-21T16:23:56.471Z,11.32
2023-05-21T16:26:43.734Z,10.90
2023-05-21T16:29:29.107Z,7.10
2023-05-21T16:32:14.445Z,9.65
2023-05-21T16:34:59.527Z,7.90
2023-05-21T16:37:48.030Z,7.30
2023-05-21T16:40:33.724Z,11.38
2023-05-21T16:43:18.776Z,8.60
2023-05-21T16:46:03.836Z,10.52
2023-05-21T16:48:48.879Z,6.70
2023-05-21T16:51:34.349Z,8.15
2023-05-21T16:54:19.832Z,11.02
2023-05-21T16:57:05.141Z,10.43
2023-05-21T16:59:54.626Z,9.07
2023-05-21T17:02:40.086Z,9.47
2023-05-21T17:05:26.358Z,5.60
2023-05-21T17:08:11.895Z,12.77
2023-05-21T17:10:57.020Z,7.15
2023-05-21T17:13:42.447Z,7.72
2023-05-21T17:16:27.836Z,12.35
2023-05-21T17:19:15.479Z,7.10
2023-05-21T17:22:00.728Z,6.43
2023-05-21T17:24:45.995Z,10.68
2023-05-21T17:27:32.302Z,7.15
2023-05-21T17:30:17.451Z,7.80
2023-05-21T17:33:03.858Z,12.00
2023-05-21T17:35:49.100Z,10.57
2023-05-21T17:38:34.694Z,9.15
2023-05-21T17:41:20.083Z,9.93
2023-05-21T17:44:05.585Z,10.57
2023-05-21T17:46:51.239Z,7.75
2023-05-21T17:49:36.804Z,8.27
2023-05-21T17:52:21.952Z,7.38
2023-05-21T17:55:07.852Z,7.07
2023-05-21T17:57:55.692Z,10.48
2023-05-21T18:00:41.129Z,6.20
2023-05-21T18:03:26.534Z,10.32
2023-05-21T18:06:11.949Z,7.97
2023-05-21T18:08:57.288Z,10.48
2023-05-21T18:11:44.351Z,11.63
2023-05-21T18:14:32.612Z,11.35
2023-05-21T18:17:18.024Z,11.60
2023-05-21T18:20:04.849Z,10.43
2023-05-21T18:22:50.687Z,7.20
2023-05-21T18:25:36.005Z,9.65
2023-05-21T18:28:21.485Z,7.55
2023-05-21T18:31:06.814Z,8.55
2023-05-21T18:33:52.321Z,6.30
2023-05-21T18:36:40.592Z,6.20
2023-05-21T18:39:27.769Z,10.40
2023-05-21T18:42:14.465Z,6.88
2023-05-21T18:45:07.358Z,11.25
2023-05-21T18:47:52.885Z,6.43
2023-05-21T18:50:38.655Z,10.35
2023-05-21T18:53:24.373Z,8.77
2023-05-21T18:56:10.232Z,9.73
2023-05-21T18:58:55.534Z,7.45
2023-05-21T19:01:41.086Z,7.32
2023-05-21T19:04:29.208Z,7.65
2023-05-21T19:07:15.980Z,8.70
2023-05-21T19:10:01.157Z,7.82
2023-05-21T19:12:49.349Z,6.07
2023-05-21T19:15:34.670Z,9.45
2023-05-21T19:18:20.044Z,6.90
2023-05-21T19:21:05.520Z,11.40
2023-05-21T19:23:53.708Z,7.97
2023-05-21T19:26:39.620Z,8.73
2023-05-21T19:29:27.171Z,9.75
2023-05-21T19:32:14.868Z,10.05
2023-05-21T19:35:00.219Z,7.55
2023-05-21T19:37:45.462Z,7.53
2023-05-21T19:40:30.882Z,13.68
2023-05-21T19:43:16.094Z,7.38
2023-05-21T19:46:01.565Z,7.97
2023-05-21T19:48:46.923Z,7.35
2023-05-21T19:51:32.107Z,8.32
2023-05-21T19:54:18.665Z,7.78
2023-05-21T19:57:03.755Z,10.45
2023-05-21T19:59:48.958Z,6.18
2023-05-21T20:02:35.252Z,12.80
2023-05-21T20:05:20.754Z,7.55
2023-05-21T20:08:05.995Z,9.38
2023-05-21T20:10:52.159Z,9.07
2023-05-21T20:13:37.830Z,6.55
2023-05-21T20:16:23.288Z,11.35
2023-05-21T20:19:10.834Z,11.57
2023-05-21T20:21:56.658Z,13.85
2023-05-21T20:24:42.546Z,7.10
2023-05-21T20:27:27.907Z,7.13
2023-05-21T20:30:13.682Z,11.18
2023-05-21T20:33:03.649Z,10.32
2023-05-21T20:35:49.206Z,9.13
2023-05-21T20:38:36.868Z,12.75
2023-05-21T20:41:22.257Z,11.63
2023-05-21T20:44:07.446Z,8.18
2023-05-21T20:46:52.798Z,9.23
2023-05-21T20:49:38.238Z,9.57
2023-05-21T20:52:24.763Z,8.75
2023-05-21T20:55:10.416Z,7.60
2023-05-21T20:57:56.066Z,9.93
2023-05-21T21:00:42.031Z,7.35
2023-05-21T21:03:30.584Z,8.20
2023-05-21T21:06:18.750Z,9.97
2023-05-21T21:09:04.419Z,9.13
2023-05-21T21:11:49.890Z,10.68
2023-05-21T21:14:35.390Z,9.20
2023-05-21T21:17:21.043Z,12.93
2023-05-21T21:20:07.544Z,9.18
2023-05-21T21:22:52.779Z,7.53
2023-05-21T21:25:38.021Z,9.13
2023-05-21T21:28:23.509Z,8.88
2023-05-21T21:31:09.271Z,15.68
2023-05-21T21:33:58.096Z,13.07
2023-05-21T21:36:43.650Z,7.47
2023-05-21T21:39:28.965Z,8.55
2023-05-21T21:42:14.495Z,8.45
2023-05-21T21:44:59.881Z,12.05
2023-05-21T21:47:45.314Z,6.95
2023-05-21T21:50:30.835Z,6.63
2023-05-21T21:53:16.608Z,8.50
2023-05-21T21:56:01.823Z,11.48
2023-05-21T21:58:47.443Z,7.93
2023-05-21T22:01:32.677Z,7.90
2023-05-21T22:04:18.043Z,8.45
2023-05-21T22:07:03.279Z,8.00
2023-05-21T22:09:48.481Z,7.55
2023-05-21T22:12:34.150Z,11.80
2023-05-21T22:15:25.104Z,6.78
2023-05-21T22:18:12.059Z,7.10
2023-05-21T22:20:57.565Z,6.38
2023-05-21T22:23:42.873Z,7.65
2023-05-21T22:26:28.250Z,8.27
2023-05-21T22:29:13.633Z,5.93
2023-05-21T22:31:58.965Z,8.20
2023-05-21T22:34:44.375Z,12.27
2023-05-21T22:37:29.459Z,9.80
2023-05-21T22:40:14.715Z,5.65
2023-05-21T22:43:00.186Z,11.48
2023-05-21T22:45:46.294Z,9.20
2023-05-21T22:48:32.975Z,6.53
2023-05-21T22:51:18.411Z,9.40
2023-05-21T22:54:03.849Z,4.78
2023-05-21T22:56:49.807Z,5.20
2023-05-21T22:59:35.057Z,6.43
2023-05-21T23:02:20.693Z,8.98
2023-05-21T23:05:06.252Z,5.38
2023-05-21T23:07:51.823Z,6.75
2023-05-21T23:10:37.337Z,5.97
2023-05-21T23:13:23.099Z,7.63
2023-05-21T23:16:08.305Z,7.53
2023-05-21T23:18:54.377Z,7.65
2023-05-21T23:21:40.051Z,10.20
2023-05-21T23:24:25.670Z,6.38
2023-05-21T23:27:10.836Z,9.88
2023-05-21T23:29:56.014Z,6.88
2023-05-21T23:32:41.310Z,6.38
2023-05-21T23:35:26.642Z,7.13
2023-05-21T23:38:11.942Z,9.18
2023-05-21T23:40:57.092Z,7.50
2023-05-21T23:43:42.723Z,5.28
2023-05-21T23:46:27.870Z,8.80
2023-05-21T23:49:13.289Z,5.35
2023-05-21T23:51:59.190Z,8.85
2023-05-21T23:54:46.217Z,6.65
2023-05-21T23:57:33.669Z,6.10
